createdAt,value
2022-08-21T00:00:23.283Z,100532.09
2022-08-21T00:02:57.996Z,100521.75
2022-08-21T00:05:26.043Z,100541.44
2022-08-21T00:07:54.244Z,100535.25
2022-08-21T00:10:23.945Z,100526.19
2022-08-21T00:12:50.868Z,100517.44
2022-08-21T00:15:21.010Z,100509.47
2022-08-21T00:17:50.615Z,100522.81
2022-08-21T00:20:17.950Z,100516.56
2022-08-21T00:22:45.334Z,100518.13
2022-08-21T00:25:12.615Z,100519.78
2022-08-21T00:27:39.396Z,100521.50
2022-08-21T00:30:08.065Z,100521.66
2022-08-21T00:32:35.001Z,100523.13
2022-08-21T00:35:01.630Z,100520.91
2022-08-21T00:37:28.182Z,100512.88
2022-08-21T00:39:57.767Z,100511.38
2022-08-21T00:42:24.883Z,100508.69
2022-08-21T00:44:52.586Z,100511.81
2022-08-21T00:47:19.911Z,100516.66
2022-08-21T00:49:46.759Z,100508.88
2022-08-21T00:52:21.484Z,100516.25
2022-08-21T00:54:49.379Z,100512.09
2022-08-21T00:57:20.543Z,100513.59
2022-08-21T00:59:54.912Z,100515.16
2022-08-21T01:02:22.528Z,100512.94
2022-08-21T01:04:49.299Z,100512.31
2022-08-21T01:07:18.726Z,100517.34
2022-08-21T01:09:49.673Z,100515.72
2022-08-21T01:12:22.293Z,100512.63
2022-08-21T01:14:49.513Z,100512.88
2022-08-21T01:17:16.596Z,100509.78
2022-08-21T01:19:43.656Z,100509.53
2022-08-21T01:22:10.905Z,100501.09
2022-08-21T01:24:38.867Z,100506.97
2022-08-21T01:27:11.719Z,100508.06
2022-08-21T01:30:08.942Z,100507.69
2022-08-21T01:32:35.481Z,100513.16
2022-08-21T01:35:09.939Z,100508.34
2022-08-21T01:37:36.494Z,100510.81
2022-08-21T01:40:04.629Z,100505.81
2022-08-21T01:42:31.266Z,100504.91
2022-08-21T01:44:57.847Z,100500.78
2022-08-21T01:47:24.665Z,100504.81
2022-08-21T01:49:54.297Z,100508.91
2022-08-21T01:52:21.131Z,100508.00
2022-08-21T01:54:54.885Z,100500.00
2022-08-21T01:57:22.672Z,100498.66
2022-08-21T01:59:53.346Z,100493.59
2022-08-21T02:02:19.904Z,100489.34
2022-08-21T02:04:46.490Z,100486.56
2022-08-21T02:07:13.200Z,100490.81
2022-08-21T02:09:40.122Z,100487.28
2022-08-21T02:12:07.043Z,100484.16
2022-08-21T02:14:33.623Z,100486.81
2022-08-21T02:17:05.370Z,100491.06
2022-08-21T02:19:40.273Z,100488.72
2022-08-21T02:22:33.584Z,100480.66
2022-08-21T02:25:00.153Z,100485.34
2022-08-21T02:27:27.979Z,100475.97
2022-08-21T02:29:58.535Z,100482.38
2022-08-21T02:32:26.800Z,100480.75
2022-08-21T02:34:53.729Z,100479.03
2022-08-21T02:37:20.789Z,100474.19
2022-08-21T02:39:47.685Z,100480.31
2022-08-21T02:42:15.566Z,100472.63
2022-08-21T02:44:42.204Z,100465.81
2022-08-21T02:47:08.779Z,100458.19
2022-08-21T02:49:35.294Z,100465.97
2022-08-21T02:52:01.772Z,100468.34
2022-08-21T02:54:28.296Z,100460.59
2022-08-21T02:56:55.783Z,100456.19
2022-08-21T02:59:22.324Z,100455.63
2022-08-21T03:01:50.505Z,100452.50
2022-08-21T03:04:17.040Z,100450.00
2022-08-21T03:06:44.139Z,100453.22
2022-08-21T03:09:10.721Z,100455.69
2022-08-21T03:11:37.547Z,100454.34
2022-08-21T03:14:06.465Z,100448.66
2022-08-21T03:16:35.090Z,100455.78
2022-08-21T03:19:02.398Z,100455.50
2022-08-21T03:21:30.035Z,100459.38
2022-08-21T03:23:56.946Z,100457.38
2022-08-21T03:26:23.667Z,100461.13
2022-08-21T03:28:51.632Z,100453.78
2022-08-21T03:31:18.671Z,100464.00
2022-08-21T03:33:45.439Z,100465.59
2022-08-21T03:36:13.163Z,100466.22
2022-08-21T03:38:40.359Z,100462.38
2022-08-21T03:41:08.229Z,100459.91
2022-08-21T03:43:35.343Z,100467.44
2022-08-21T03:46:04.397Z,100472.00
2022-08-21T03:48:33.773Z,100472.13
2022-08-21T03:51:00.863Z,100475.81
2022-08-21T03:53:27.784Z,100468.81
2022-08-21T03:55:55.168Z,100481.88
2022-08-21T03:58:24.773Z,100484.41
2022-08-21T04:00:55.479Z,100476.41
2022-08-21T04:03:22.449Z,100480.09
2022-08-21T04:05:50.634Z,100475.97
2022-08-21T04:08:20.243Z,100485.28
2022-08-21T04:10:48.985Z,100484.69
2022-08-21T04:13:15.922Z,100483.19
2022-08-21T04:15:42.875Z,100492.69
2022-08-21T04:18:09.491Z,100491.16
2022-08-21T04:20:36.256Z,100497.97
2022-08-21T04:23:05.412Z,100488.59
2022-08-21T04:25:32.759Z,100496.41
2022-08-21T04:28:02.829Z,100496.03
2022-08-21T04:30:36.489Z,100497.94
2022-08-21T04:33:04.457Z,100486.19
2022-08-21T04:35:31.238Z,100482.34
2022-08-21T04:37:58.285Z,100482.94
2022-08-21T04:40:26.820Z,100488.63
2022-08-21T04:43:13.100Z,100478.66
2022-08-21T04:45:42.675Z,100483.94
2022-08-21T04:48:13.948Z,100492.41
2022-08-21T04:51:19.978Z,100491.75
2022-08-21T04:53:50.451Z,100490.50
2022-08-21T04:56:37.963Z,100493.63
2022-08-21T04:59:47.045Z,100505.84
2022-08-21T05:02:14.833Z,100503.47
2022-08-21T05:04:51.985Z,100506.16
2022-08-21T05:07:41.687Z,100512.50
2022-08-21T05:10:09.892Z,100515.56
2022-08-21T05:12:38.884Z,100512.09
2022-08-21T05:15:05.558Z,100514.44
2022-08-21T05:17:38.174Z,100518.25
2022-08-21T05:20:05.203Z,100524.94
2022-08-21T05:22:31.766Z,100527.72
2022-08-21T05:24:58.307Z,100519.84
2022-08-21T05:27:26.117Z,100526.88
2022-08-21T05:29:54.310Z,100531.50
2022-08-21T05:32:20.779Z,100536.97
2022-08-21T05:34:48.546Z,100536.69
2022-08-21T05:37:16.666Z,100537.41
2022-08-21T05:40:21.190Z,100536.84
2022-08-21T05:42:30.189Z,100535.59
2022-08-21T05:44:56.671Z,100538.53
2022-08-21T05:47:23.130Z,100544.59
2022-08-21T05:49:49.712Z,100536.66
2022-08-21T05:52:22.845Z,100539.28
2022-08-21T05:54:49.962Z,100535.75
2022-08-21T05:57:16.890Z,100532.97
2022-08-21T05:59:43.434Z,100537.31
2022-08-21T06:02:10.207Z,100531.78
2022-08-21T06:04:38.278Z,100533.22
2022-08-21T06:07:05.125Z,100531.16
2022-08-21T06:09:32.198Z,100540.78
2022-08-21T06:11:59.750Z,100534.75
2022-08-21T06:14:26.255Z,100526.66
2022-08-21T06:16:55.812Z,100525.84
2022-08-21T06:19:22.323Z,100522.56
2022-08-21T06:21:48.813Z,100510.81
2022-08-21T06:24:15.290Z,100515.84
2022-08-21T06:26:41.906Z,100508.13
2022-08-21T06:29:11.407Z,100510.94
2022-08-21T06:31:38.059Z,100517.91
2022-08-21T06:34:05.671Z,100516.34
2022-08-21T06:36:32.146Z,100503.03
2022-08-21T06:38:58.724Z,100499.22
2022-08-21T06:41:27.262Z,100512.88
2022-08-21T06:43:56.071Z,100515.50
2022-08-21T06:46:23.800Z,100518.59
2022-08-21T06:48:50.501Z,100514.06
2022-08-21T06:51:16.967Z,100516.34
2022-08-21T06:53:43.450Z,100526.38
2022-08-21T06:56:12.871Z,100520.78
2022-08-21T06:58:39.362Z,100523.94
2022-08-21T07:01:06.150Z,100530.72
2022-08-21T07:03:36.728Z,100542.28
2022-08-21T07:06:04.280Z,100538.88
2022-08-21T07:08:30.824Z,100545.75
2022-08-21T07:10:59.899Z,100539.94
2022-08-21T07:13:27.005Z,100538.22
2022-08-21T07:15:53.662Z,100532.59
2022-08-21T07:18:20.706Z,100541.91
2022-08-21T07:20:48.831Z,100546.38
2022-08-21T07:23:33.834Z,100546.19
2022-08-21T07:26:03.821Z,100542.03
2022-08-21T07:28:32.774Z,100543.66
2022-08-21T07:31:01.051Z,100545.91
2022-08-21T07:33:30.943Z,100544.59
2022-08-21T07:35:57.553Z,100538.28
2022-08-21T07:38:24.703Z,100541.28
2022-08-21T07:40:52.428Z,100543.31
2022-08-21T07:43:19.125Z,100544.84
2022-08-21T07:45:46.340Z,100542.25
2022-08-21T07:48:13.950Z,100545.28
2022-08-21T07:50:40.957Z,100548.38
2022-08-21T07:53:08.412Z,100551.75
2022-08-21T07:55:35.221Z,100553.16
2022-08-21T07:58:01.842Z,100552.75
2022-08-21T08:00:29.724Z,100556.97
2022-08-21T08:02:59.458Z,100555.81
2022-08-21T08:05:28.871Z,100553.38
2022-08-21T08:07:56.136Z,100542.88
2022-08-21T08:10:22.943Z,100543.97
2022-08-21T08:12:50.170Z,100549.91
2022-08-21T08:15:19.837Z,100554.19
2022-08-21T08:17:51.896Z,100557.91
2022-08-21T08:20:21.123Z,100554.75
2022-08-21T08:22:50.403Z,100557.69
2022-08-21T08:25:18.085Z,100557.81
2022-08-21T08:27:50.471Z,100566.50
2022-08-21T08:30:19.556Z,100562.03
2022-08-21T08:32:49.064Z,100561.00
2022-08-21T08:35:15.669Z,100564.69
2022-08-21T08:37:43.679Z,100568.00
2022-08-21T08:40:15.558Z,100563.34
2022-08-21T08:42:42.251Z,100567.97
2022-08-21T08:45:23.934Z,100574.06
2022-08-21T08:47:58.875Z,100571.28
2022-08-21T08:50:46.562Z,100572.00
2022-08-21T08:53:19.035Z,100557.38
2022-08-21T08:55:46.382Z,100562.28
2022-08-21T08:58:29.516Z,100562.66
2022-08-21T09:00:56.340Z,100561.47
2022-08-21T09:03:27.161Z,100561.78
2022-08-21T09:06:02.161Z,100552.00
2022-08-21T09:08:51.760Z,100568.06
2022-08-21T09:11:34.502Z,100560.66
2022-08-21T09:14:13.290Z,100554.88
2022-08-21T09:17:14.820Z,100559.72
2022-08-21T09:19:47.298Z,100560.84
2022-08-21T09:22:26.172Z,100561.22
2022-08-21T09:25:16.756Z,100555.94
2022-08-21T09:27:45.068Z,100557.19
2022-08-21T09:30:12.201Z,100562.56
2022-08-21T09:32:39.862Z,100567.88
2022-08-21T09:35:16.031Z,100572.22
2022-08-21T09:38:09.081Z,100561.47
2022-08-21T09:40:46.602Z,100564.63
2022-08-21T09:43:15.787Z,100567.09
2022-08-21T09:45:43.575Z,100560.47
2022-08-21T09:48:26.447Z,100556.50
2022-08-21T09:51:14.009Z,100569.19
2022-08-21T09:53:46.893Z,100573.66
2022-08-21T09:56:50.977Z,100572.06
2022-08-21T09:59:35.694Z,100578.19
2022-08-21T10:02:30.488Z,100585.03
2022-08-21T10:05:08.170Z,100589.56
2022-08-21T10:07:37.983Z,100583.75
2022-08-21T10:10:08.303Z,100589.31
2022-08-21T10:12:53.696Z,100590.03
2022-08-21T10:15:50.791Z,100580.13
2022-08-21T10:18:43.284Z,100569.94
2022-08-21T10:21:24.832Z,100578.63
2022-08-21T10:24:30.571Z,100575.16
2022-08-21T10:27:04.677Z,100576.63
2022-08-21T10:29:40.166Z,100578.84
2022-08-21T10:32:26.027Z,100592.09
2022-08-21T10:35:01.454Z,100588.50
2022-08-21T10:37:53.728Z,100581.91
2022-08-21T10:40:34.659Z,100586.38
2022-08-21T10:43:51.444Z,100592.13
2022-08-21T10:46:33.868Z,100591.63
2022-08-21T10:49:24.904Z,100584.72
2022-08-21T10:52:28.918Z,100595.06
2022-08-21T10:55:21.054Z,100597.22
2022-08-21T10:57:52.869Z,100591.75
2022-08-21T11:00:27.506Z,100593.53
2022-08-21T11:03:15.193Z,100593.34
2022-08-21T11:06:04.236Z,100603.44
2022-08-21T11:08:43.758Z,100597.22
2022-08-21T11:11:22.876Z,100602.72
2022-08-21T11:13:57.214Z,100602.84
2022-08-21T11:16:34.538Z,100603.28
2022-08-21T11:19:32.443Z,100617.50
2022-08-21T11:22:22.580Z,100611.94
2022-08-21T11:24:58.907Z,100610.44
2022-08-21T11:27:37.762Z,100618.53
2022-08-21T11:30:04.783Z,100624.91
2022-08-21T11:32:58.090Z,100624.19
2022-08-21T11:35:48.280Z,100631.34
2022-08-21T11:38:23.646Z,100626.44
2022-08-21T11:41:02.566Z,100634.81
2022-08-21T11:43:35.246Z,100637.56
2022-08-21T11:46:23.320Z,100644.34
2022-08-21T11:49:01.986Z,100648.63
2022-08-21T11:51:48.266Z,100649.69
2022-08-21T11:54:49.860Z,100648.25
2022-08-21T11:57:29.037Z,100646.69
2022-08-21T12:00:01.930Z,100632.22
2022-08-21T12:02:37.581Z,100635.31
2022-08-21T12:05:08.420Z,100635.63
2022-08-21T12:07:43.588Z,100633.75
2022-08-21T12:10:25.031Z,100643.69
2022-08-21T12:12:51.576Z,100652.38
2022-08-21T12:15:27.729Z,100649.38
2022-08-21T12:18:06.340Z,100637.97
2022-08-21T12:20:36.088Z,100641.34
2022-08-21T12:23:17.623Z,100628.38
2022-08-21T12:26:25.795Z,100628.69
2022-08-21T12:29:00.092Z,100632.59
2022-08-21T12:31:27.678Z,100631.44
2022-08-21T12:34:11.122Z,100633.41
2022-08-21T12:36:48.058Z,100636.03
2022-08-21T12:39:20.514Z,100650.25
2022-08-21T12:42:19.581Z,100659.81
2022-08-21T12:44:57.316Z,100666.34
2022-08-21T12:47:49.449Z,100665.94
2022-08-21T12:50:37.418Z,100668.81
2022-08-21T12:53:20.241Z,100664.94
2022-08-21T12:55:47.556Z,100665.41
2022-08-21T12:58:25.198Z,100664.34
2022-08-21T13:00:54.660Z,100663.22
2022-08-21T13:03:22.986Z,100678.03
2022-08-21T13:05:52.403Z,100680.31
2022-08-21T13:08:21.238Z,100680.69
2022-08-21T13:10:49.203Z,100677.66
2022-08-21T13:13:25.620Z,100667.41
2022-08-21T13:16:07.524Z,100669.81
2022-08-21T13:18:52.691Z,100672.50
2022-08-21T13:21:22.126Z,100681.34
2022-08-21T13:23:49.407Z,100696.69
2022-08-21T13:26:21.714Z,100693.56
2022-08-21T13:28:51.234Z,100693.22
2022-08-21T13:31:23.871Z,100693.66
2022-08-21T13:33:51.752Z,100685.34
2022-08-21T13:36:38.780Z,100694.19
2022-08-21T13:39:08.303Z,100689.56
2022-08-21T13:41:37.653Z,100700.97
2022-08-21T13:44:28.137Z,100701.38
2022-08-21T13:46:55.099Z,100697.97
2022-08-21T13:49:34.558Z,100697.97
2022-08-21T13:52:01.506Z,100701.03
2022-08-21T13:55:01.527Z,100701.75
2022-08-21T13:57:34.119Z,100697.56
2022-08-21T14:00:20.566Z,100701.44
2022-08-21T14:02:53.932Z,100705.63
2022-08-21T14:05:24.057Z,100707.53
2022-08-21T14:07:51.851Z,100712.88
2022-08-21T14:10:22.489Z,100708.66
2022-08-21T14:12:57.893Z,100708.28
2022-08-21T14:15:29.373Z,100713.66
2022-08-21T14:18:45.978Z,100722.09
2022-08-21T14:21:14.397Z,100718.28
2022-08-21T14:23:41.226Z,100713.69
2022-08-21T14:26:08.370Z,100719.81
2022-08-21T14:28:39.686Z,100718.63
2022-08-21T14:31:20.186Z,100709.50
2022-08-21T14:33:46.805Z,100716.34
2022-08-21T14:36:13.453Z,100710.66
2022-08-21T14:38:41.404Z,100716.38
2022-08-21T14:41:16.921Z,100722.09
2022-08-21T14:43:44.427Z,100724.00
2022-08-21T14:46:12.434Z,100720.59
2022-08-21T14:48:39.156Z,100711.81
2022-08-21T14:51:05.785Z,100710.69
2022-08-21T14:53:32.271Z,100708.78
2022-08-21T14:56:10.997Z,100700.03
2022-08-21T14:58:40.295Z,100703.84
2022-08-21T15:01:09.544Z,100711.09
2022-08-21T15:03:36.747Z,100703.47
2022-08-21T15:06:05.391Z,100704.22
2022-08-21T15:08:32.031Z,100703.47
2022-08-21T15:11:42.539Z,100708.03
2022-08-21T15:13:48.542Z,100722.13
2022-08-21T15:16:15.499Z,100728.56
2022-08-21T15:18:42.893Z,100723.25
2022-08-21T15:21:09.727Z,100724.75
2022-08-21T15:23:36.374Z,100718.28
2022-08-21T15:26:10.448Z,100714.88
2022-08-21T15:28:39.016Z,100722.88
2022-08-21T15:31:05.985Z,100727.06
2022-08-21T15:33:32.797Z,100733.53
2022-08-21T15:36:01.067Z,100722.13
2022-08-21T15:38:27.539Z,100728.59
2022-08-21T15:40:54.168Z,100726.69
2022-08-21T15:43:32.744Z,100730.88
2022-08-21T15:46:00.673Z,100732.03
2022-08-21T15:48:27.920Z,100725.94
2022-08-21T15:50:54.444Z,100719.81
2022-08-21T15:53:23.274Z,100710.69
2022-08-21T15:55:50.212Z,100721.34
2022-08-21T15:58:17.733Z,100734.31
2022-08-21T16:00:45.478Z,100732.41
2022-08-21T16:03:16.326Z,100738.50
2022-08-21T16:05:43.619Z,100733.16
2022-08-21T16:08:11.745Z,100745.75
2022-08-21T16:10:49.762Z,100737.38
2022-08-21T16:16:20.516Z,100735.78
2022-08-21T16:18:50.193Z,100742.28
2022-08-21T16:21:19.373Z,100752.94
2022-08-21T16:23:47.273Z,100763.22
2022-08-21T16:26:18.483Z,100759.78
2022-08-21T16:28:46.456Z,100751.41
2022-08-21T16:31:15.492Z,100742.25
2022-08-21T16:33:58.274Z,100733.16
2022-08-21T16:36:26.366Z,100735.78
2022-08-21T16:38:54.623Z,100725.13
2022-08-21T16:41:23.357Z,100729.31
2022-08-21T16:43:51.724Z,100733.53
2022-08-21T16:46:19.313Z,100746.84
2022-08-21T16:48:47.253Z,100743.03
2022-08-21T16:51:15.780Z,100736.19
2022-08-21T16:53:43.655Z,100735.41
2022-08-21T16:56:11.546Z,100738.88
2022-08-21T16:58:40.545Z,100749.19
2022-08-21T17:01:11.245Z,100745.00
2022-08-21T17:03:42.820Z,100750.69
2022-08-21T17:06:10.152Z,100761.72
2022-08-21T17:08:36.944Z,100765.50
2022-08-21T17:11:06.787Z,100767.84
2022-08-21T17:13:33.751Z,100766.31
2022-08-21T17:16:00.271Z,100770.50
2022-08-21T17:18:27.073Z,100762.50
2022-08-21T17:20:53.659Z,100765.13
2022-08-21T17:23:20.463Z,100765.88
2022-08-21T17:25:49.073Z,100754.81
2022-08-21T17:28:19.762Z,100757.47
2022-08-21T17:30:46.341Z,100763.16
2022-08-21T17:33:16.807Z,100772.72
2022-08-21T17:35:43.896Z,100776.53
2022-08-21T17:38:11.027Z,100770.00
2022-08-21T17:40:41.386Z,100782.22
2022-08-21T17:43:09.201Z,100785.22
2022-08-21T17:45:40.006Z,100795.47
2022-08-21T17:48:06.657Z,100793.53
2022-08-21T17:50:33.331Z,100802.25
2022-08-21T17:52:59.916Z,100796.94
2022-08-21T17:55:28.220Z,100802.94
2022-08-21T17:57:55.808Z,100800.69
2022-08-21T18:00:24.273Z,100808.28
2022-08-21T18:05:53.947Z,100819.75
2022-08-21T18:08:20.523Z,100813.69
2022-08-21T18:10:48.266Z,100811.41
2022-08-21T18:13:18.036Z,100816.34
2022-08-21T18:15:46.696Z,100820.41
2022-08-21T18:18:13.242Z,100817.09
2022-08-21T18:20:40.149Z,100821.59
2022-08-21T18:23:06.679Z,100826.59
2022-08-21T18:25:33.784Z,100819.75
2022-08-21T18:28:04.890Z,100828.16
2022-08-21T18:30:34.434Z,100825.84
2022-08-21T18:33:01.351Z,100829.25
2022-08-21T18:35:27.971Z,100828.16
2022-08-21T18:37:59.126Z,100830.38
2022-08-21T18:40:26.047Z,100818.91
2022-08-21T18:42:58.925Z,100827.31
2022-08-21T18:45:26.457Z,100825.38
2022-08-21T18:47:55.314Z,100830.59
2022-08-21T18:50:24.871Z,100829.47
2022-08-21T18:52:53.571Z,100831.69
2022-08-21T18:55:21.555Z,100840.06
2022-08-21T18:57:48.198Z,100845.75
2022-08-21T19:00:21.578Z,100852.22
2022-08-21T19:02:48.179Z,100858.19
2022-08-21T19:05:17.449Z,100850.16
2022-08-21T19:07:44.720Z,100852.38
2022-08-21T19:10:27.702Z,100848.34
2022-08-21T19:12:56.835Z,100844.63
2022-08-21T19:15:24.460Z,100849.91
2022-08-21T19:17:52.794Z,100844.56
2022-08-21T19:20:29.446Z,100851.03
2022-08-21T19:22:56.597Z,100849.19
2022-08-21T19:25:32.933Z,100841.22
2022-08-21T19:28:11.490Z,100839.34
2022-08-21T19:30:45.927Z,100836.25
2022-08-21T19:33:24.571Z,100840.41
2022-08-21T19:35:54.041Z,100843.06
2022-08-21T19:38:21.160Z,100853.31
2022-08-21T19:40:48.426Z,100852.50
2022-08-21T19:43:15.833Z,100843.66
2022-08-21T19:46:02.408Z,100843.75
2022-08-21T19:48:30.080Z,100848.00
2022-08-21T19:50:56.612Z,100847.28
2022-08-21T19:53:23.286Z,100848.69
2022-08-21T19:55:49.951Z,100851.41
2022-08-21T19:58:36.973Z,100859.41
2022-08-21T20:01:16.298Z,100852.50
2022-08-21T20:03:43.959Z,100854.03
2022-08-21T20:06:10.729Z,100843.00
2022-08-21T20:08:37.401Z,100850.88
2022-08-21T20:11:04.700Z,100850.13
2022-08-21T20:13:35.230Z,100858.06
2022-08-21T20:16:05.449Z,100856.03
2022-08-21T20:18:33.123Z,100856.41
2022-08-21T20:20:59.659Z,100859.09
2022-08-21T20:23:30.448Z,100862.09
2022-08-21T20:26:00.403Z,100853.44
2022-08-21T20:28:28.847Z,100854.53
2022-08-21T20:30:56.259Z,100862.22
2022-08-21T20:33:23.759Z,100863.44
2022-08-21T20:35:52.245Z,100862.69
2022-08-21T20:38:20.036Z,100858.97
2022-08-21T20:40:49.950Z,100851.69
2022-08-21T20:43:17.905Z,100856.91
2022-08-21T20:45:44.558Z,100850.16
2022-08-21T20:48:18.324Z,100854.53
2022-08-21T20:51:01.376Z,100849.94
2022-08-21T20:53:44.166Z,100853.81
2022-08-21T20:56:20.929Z,100858.09
2022-08-21T20:59:05.622Z,100861.31
2022-08-21T21:01:33.553Z,100855.94
2022-08-21T21:04:19.485Z,100852.84
2022-08-21T21:06:50.177Z,100859.31
2022-08-21T21:09:26.870Z,100852.50
2022-08-21T21:12:00.669Z,100861.50
2022-08-21T21:14:37.541Z,100863.81
2022-08-21T21:17:16.764Z,100867.28
2022-08-21T21:20:10.166Z,100865.47
2022-08-21T21:23:01.747Z,100860.06
2022-08-21T21:25:40.900Z,100861.03
2022-08-21T21:28:12.749Z,100864.16
2022-08-21T21:30:47.092Z,100863.91
2022-08-21T21:33:24.572Z,100857.34
2022-08-21T21:35:57.802Z,100856.34
2022-08-21T21:38:32.446Z,100851.06
2022-08-21T21:41:34.729Z,100852.19
2022-08-21T21:44:21.264Z,100845.28
2022-08-21T21:47:06.602Z,100843.34
2022-08-21T21:49:38.457Z,100843.19
2022-08-21T21:52:26.899Z,100849.53
2022-08-21T21:55:12.678Z,100854.03
2022-08-21T21:58:03.740Z,100848.06
2022-08-21T22:00:33.850Z,100844.59
2022-08-21T22:03:17.182Z,100848.50
2022-08-21T22:05:54.472Z,100851.56
2022-08-21T22:08:48.719Z,100854.13
2022-08-21T22:11:29.535Z,100851.88
2022-08-21T22:14:08.159Z,100847.53
2022-08-21T22:16:36.054Z,100850.66
2022-08-21T22:19:14.082Z,100858.25
2022-08-21T22:21:51.924Z,100860.28
2022-08-21T22:24:27.669Z,100868.47
2022-08-21T22:27:01.845Z,100864.63
2022-08-21T22:30:12.841Z,100860.47
2022-08-21T22:32:45.912Z,100857.00
2022-08-21T22:35:18.224Z,100860.81
2022-08-21T22:37:49.635Z,100857.97
2022-08-21T22:40:27.345Z,100858.25
2022-08-21T22:43:09.500Z,100869.25
2022-08-21T22:46:08.128Z,100859.53
2022-08-21T22:48:39.844Z,100868.25
2022-08-21T22:51:46.901Z,100869.44
2022-08-21T22:54:27.830Z,100871.34
2022-08-21T22:57:05.658Z,100870.72
2022-08-21T22:59:36.018Z,100866.63
2022-08-21T23:02:28.715Z,100872.38
2022-08-21T23:04:58.811Z,100865.19
2022-08-21T23:07:44.488Z,100857.59
2022-08-21T23:10:34.636Z,100861.31
2022-08-21T23:13:11.216Z,100863.59
2022-08-21T23:15:49.838Z,100862.03
2022-08-21T23:18:35.393Z,100857.88
2022-08-21T23:21:18.838Z,100850.69
2022-08-21T23:27:35.740Z,100860.13
2022-08-21T23:30:10.224Z,100857.78
2022-08-21T23:32:51.568Z,100852.44
2022-08-21T23:36:07.674Z,100859.25
2022-08-21T23:38:54.016Z,100854.31
2022-08-21T23:41:34.390Z,100858.13
2022-08-21T23:44:35.446Z,100849.81
2022-08-21T23:47:22.290Z,100854.63
2022-08-21T23:50:14.061Z,100853.47
2022-08-21T23:53:10.695Z,100851.59
2022-08-21T23:55:42.557Z,100848.94
2022-08-21T23:58:15.376Z,100860.28
